sensor_id;sensor_type;location;lat;lon;timestamp;P1;durP1;ratioP1;P2;durP2;ratioP2
72639;SDS011;60683;51.730;8.762;2022-12-05T00:00:38;7.43;;;4.10;;
72639;SDS011;60683;51.730;8.762;2022-12-05T00:03:07;9.27;;;4.75;;
72639;SDS011;60683;51.730;8.762;2022-12-05T00:05:38;5.20;;;3.50;;
72639;SDS011;60683;51.730;8.762;2022-12-05T00:08:05;11.57;;;6.00;;
72639;SDS011;60683;51.730;8.762;2022-12-05T00:10:35;9.32;;;5.00;;
72639;SDS011;60683;51.730;8.762;2022-12-05T00:13:03;11.68;;;5.63;;
72639;SDS011;60683;51.730;8.762;2022-12-05T00:15:31;14.27;;;7.35;;
72639;SDS011;60683;51.730;8.762;2022-12-05T00:18:02;10.32;;;5.35;;
72639;SDS011;60683;51.730;8.762;2022-12-05T00:20:30;10.73;;;4.93;;
72639;SDS011;60683;51.730;8.762;2022-12-05T00:22:57;15.95;;;6.78;;
72639;SDS011;60683;51.730;8.762;2022-12-05T00:25:25;13.52;;;6.10;;
72639;SDS011;60683;51.730;8.762;2022-12-05T00:27:53;11.18;;;5.72;;
72639;SDS011;60683;51.730;8.762;2022-12-05T00:30:22;10.70;;;6.20;;
72639;SDS011;60683;51.730;8.762;2022-12-05T00:32:51;11.10;;;5.22;;
72639;SDS011;60683;51.730;8.762;2022-12-05T00:35:18;9.60;;;4.90;;
72639;SDS011;60683;51.730;8.762;2022-12-05T00:37:47;7.65;;;4.97;;
72639;SDS011;60683;51.730;8.762;2022-12-05T00:40:14;14.57;;;6.60;;
72639;SDS011;60683;51.730;8.762;2022-12-05T00:42:42;13.45;;;6.45;;
72639;SDS011;60683;51.730;8.762;2022-12-05T00:45:12;7.30;;;4.22;;
72639;SDS011;60683;51.730;8.762;2022-12-05T00:47:39;12.88;;;6.50;;
72639;SDS011;60683;51.730;8.762;2022-12-05T00:50:07;11.65;;;6.32;;
72639;SDS011;60683;51.730;8.762;2022-12-05T00:52:34;8.77;;;4.38;;
72639;SDS011;60683;51.730;8.762;2022-12-05T00:55:03;4.13;;;2.35;;
72639;SDS011;60683;51.730;8.762;2022-12-05T00:57:31;14.60;;;7.25;;
72639;SDS011;60683;51.730;8.762;2022-12-05T01:00:00;12.60;;;6.90;;
72639;SDS011;60683;51.730;8.762;2022-12-05T01:02:30;11.30;;;6.32;;
72639;SDS011;60683;51.730;8.762;2022-12-05T01:04:59;13.18;;;6.95;;
72639;SDS011;60683;51.730;8.762;2022-12-05T01:07:26;12.70;;;7.28;;
72639;SDS011;60683;51.730;8.762;2022-12-05T01:09:54;14.05;;;6.57;;
72639;SDS011;60683;51.730;8.762;2022-12-05T01:12:21;13.57;;;7.13;;
72639;SDS011;60683;51.730;8.762;2022-12-05T01:14:49;13.35;;;6.50;;
72639;SDS011;60683;51.730;8.762;2022-12-05T01:17:16;11.50;;;6.07;;
72639;SDS011;60683;51.730;8.762;2022-12-05T01:19:46;7.40;;;3.38;;
72639;SDS011;60683;51.730;8.762;2022-12-05T01:22:15;15.55;;;6.38;;
72639;SDS011;60683;51.730;8.762;2022-12-05T01:24:43;8.55;;;5.10;;
72639;SDS011;60683;51.730;8.762;2022-12-05T01:27:11;14.02;;;7.20;;
72639;SDS011;60683;51.730;8.762;2022-12-05T01:29:40;13.23;;;6.63;;
72639;SDS011;60683;51.730;8.762;2022-12-05T01:32:07;5.28;;;2.67;;
72639;SDS011;60683;51.730;8.762;2022-12-05T01:34:35;13.55;;;6.00;;
72639;SDS011;60683;51.730;8.762;2022-12-05T01:37:03;7.40;;;3.75;;
72639;SDS011;60683;51.730;8.762;2022-12-05T01:39:31;19.92;;;7.63;;
72639;SDS011;60683;51.730;8.762;2022-12-05T01:41:59;12.25;;;6.80;;
72639;SDS011;60683;51.730;8.762;2022-12-05T01:47:31;13.77;;;6.05;;
72639;SDS011;60683;51.730;8.762;2022-12-05T01:50:03;10.25;;;5.07;;
72639;SDS011;60683;51.730;8.762;2022-12-05T01:52:33;12.32;;;6.53;;
72639;SDS011;60683;51.730;8.762;2022-12-05T01:55:03;5.70;;;2.45;;
72639;SDS011;60683;51.730;8.762;2022-12-05T01:57:33;5.82;;;3.38;;
72639;SDS011;60683;51.730;8.762;2022-12-05T02:00:01;16.63;;;6.93;;
72639;SDS011;60683;51.730;8.762;2022-12-05T02:05:00;12.50;;;6.85;;
72639;SDS011;60683;51.730;8.762;2022-12-05T02:07:28;14.75;;;5.85;;
72639;SDS011;60683;51.730;8.762;2022-12-05T02:09:59;14.02;;;7.25;;
72639;SDS011;60683;51.730;8.762;2022-12-05T02:12:29;11.00;;;5.22;;
72639;SDS011;60683;51.730;8.762;2022-12-05T02:15:01;15.10;;;6.88;;
72639;SDS011;60683;51.730;8.762;2022-12-05T02:17:39;11.77;;;6.57;;
72639;SDS011;60683;51.730;8.762;2022-12-05T02:20:17;5.80;;;3.03;;
72639;SDS011;60683;51.730;8.762;2022-12-05T02:29:17;10.63;;;5.90;;
72639;SDS011;60683;51.730;8.762;2022-12-05T02:31:58;11.05;;;5.40;;
72639;SDS011;60683;51.730;8.762;2022-12-05T02:34:33;12.60;;;6.35;;
72639;SDS011;60683;51.730;8.762;2022-12-05T02:37:04;11.20;;;6.10;;
72639;SDS011;60683;51.730;8.762;2022-12-05T02:39:40;11.57;;;5.65;;
72639;SDS011;60683;51.730;8.762;2022-12-05T02:42:12;14.25;;;6.85;;
72639;SDS011;60683;51.730;8.762;2022-12-05T02:44:43;13.13;;;7.70;;
72639;SDS011;60683;51.730;8.762;2022-12-05T02:49:41;12.50;;;5.18;;
72639;SDS011;60683;51.730;8.762;2022-12-05T02:52:11;7.78;;;5.30;;
72639;SDS011;60683;51.730;8.762;2022-12-05T02:54:40;10.85;;;6.03;;
72639;SDS011;60683;51.730;8.762;2022-12-05T02:57:09;13.63;;;5.47;;
72639;SDS011;60683;51.730;8.762;2022-12-05T02:59:37;13.50;;;5.50;;
72639;SDS011;60683;51.730;8.762;2022-12-05T03:02:06;6.82;;;3.08;;
72639;SDS011;60683;51.730;8.762;2022-12-05T03:04:35;11.48;;;4.00;;
72639;SDS011;60683;51.730;8.762;2022-12-05T03:07:05;4.72;;;2.28;;
72639;SDS011;60683;51.730;8.762;2022-12-05T03:09:35;14.25;;;5.57;;
72639;SDS011;60683;51.730;8.762;2022-12-05T03:12:06;8.80;;;5.05;;
72639;SDS011;60683;51.730;8.762;2022-12-05T03:14:37;14.15;;;6.80;;
72639;SDS011;60683;51.730;8.762;2022-12-05T03:17:08;16.88;;;6.78;;
72639;SDS011;60683;51.730;8.762;2022-12-05T03:19:41;9.82;;;5.25;;
72639;SDS011;60683;51.730;8.762;2022-12-05T03:22:14;10.25;;;5.55;;
72639;SDS011;60683;51.730;8.762;2022-12-05T03:24:45;9.75;;;6.80;;
72639;SDS011;60683;51.730;8.762;2022-12-05T03:27:14;13.23;;;6.40;;
72639;SDS011;60683;51.730;8.762;2022-12-05T03:29:44;14.98;;;6.47;;
72639;SDS011;60683;51.730;8.762;2022-12-05T03:32:18;9.93;;;5.25;;
72639;SDS011;60683;51.730;8.762;2022-12-05T03:34:54;11.57;;;6.63;;
72639;SDS011;60683;51.730;8.762;2022-12-05T03:37:26;5.60;;;3.83;;
72639;SDS011;60683;51.730;8.762;2022-12-05T03:40:03;11.82;;;5.80;;
72639;SDS011;60683;51.730;8.762;2022-12-05T03:42:34;9.90;;;5.78;;
72639;SDS011;60683;51.730;8.762;2022-12-05T03:45:05;6.93;;;3.95;;
72639;SDS011;60683;51.730;8.762;2022-12-05T03:50:06;7.13;;;3.08;;
72639;SDS011;60683;51.730;8.762;2022-12-05T03:52:38;6.90;;;3.97;;
72639;SDS011;60683;51.730;8.762;2022-12-05T03:55:10;8.48;;;4.00;;
72639;SDS011;60683;51.730;8.762;2022-12-05T03:57:40;9.30;;;4.90;;
72639;SDS011;60683;51.730;8.762;2022-12-05T04:00:10;7.57;;;4.13;;
72639;SDS011;60683;51.730;8.762;2022-12-05T04:02:40;11.27;;;5.47;;
72639;SDS011;60683;51.730;8.762;2022-12-05T04:05:13;9.13;;;4.53;;
72639;SDS011;60683;51.730;8.762;2022-12-05T04:07:49;8.13;;;4.13;;
72639;SDS011;60683;51.730;8.762;2022-12-05T04:10:20;9.25;;;4.78;;
72639;SDS011;60683;51.730;8.762;2022-12-05T04:15:19;14.73;;;5.55;;
72639;SDS011;60683;51.730;8.762;2022-12-05T04:17:49;10.63;;;5.70;;
72639;SDS011;60683;51.730;8.762;2022-12-05T04:20:20;9.77;;;5.35;;
72639;SDS011;60683;51.730;8.762;2022-12-05T04:23:07;11.60;;;5.68;;
72639;SDS011;60683;51.730;8.762;2022-12-05T04:25:35;11.80;;;5.40;;
72639;SDS011;60683;51.730;8.762;2022-12-05T04:28:10;11.60;;;5.75;;
72639;SDS011;60683;51.730;8.762;2022-12-05T04:30:42;11.75;;;5.25;;
72639;SDS011;60683;51.730;8.762;2022-12-05T04:33:14;12.23;;;5.85;;
72639;SDS011;60683;51.730;8.762;2022-12-05T04:35:46;9.30;;;6.05;;
72639;SDS011;60683;51.730;8.762;2022-12-05T04:38:19;12.32;;;6.60;;
72639;SDS011;60683;51.730;8.762;2022-12-05T04:40:51;10.63;;;6.35;;
72639;SDS011;60683;51.730;8.762;2022-12-05T04:43:21;12.40;;;5.55;;
72639;SDS011;60683;51.730;8.762;2022-12-05T04:45:49;13.23;;;6.18;;
72639;SDS011;60683;51.730;8.762;2022-12-05T04:48:19;11.90;;;5.82;;
72639;SDS011;60683;51.730;8.762;2022-12-05T04:50:49;11.00;;;6.47;;
72639;SDS011;60683;51.730;8.762;2022-12-05T04:53:18;13.60;;;5.35;;
72639;SDS011;60683;51.730;8.762;2022-12-05T04:55:48;12.35;;;5.35;;
72639;SDS011;60683;51.730;8.762;2022-12-05T04:58:20;9.90;;;5.88;;
72639;SDS011;60683;51.730;8.762;2022-12-05T05:00:50;12.05;;;5.93;;
72639;SDS011;60683;51.730;8.762;2022-12-05T05:03:22;12.43;;;5.85;;
72639;SDS011;60683;51.730;8.762;2022-12-05T05:05:54;9.13;;;4.20;;
72639;SDS011;60683;51.730;8.762;2022-12-05T05:08:23;12.27;;;5.38;;
72639;SDS011;60683;51.730;8.762;2022-12-05T05:10:56;11.73;;;5.93;;
72639;SDS011;60683;51.730;8.762;2022-12-05T05:13:31;9.77;;;4.95;;
72639;SDS011;60683;51.730;8.762;2022-12-05T05:15:58;11.13;;;5.82;;
72639;SDS011;60683;51.730;8.762;2022-12-05T05:18:25;12.43;;;6.22;;
72639;SDS011;60683;51.730;8.762;2022-12-05T05:20:55;12.77;;;6.57;;
72639;SDS011;60683;51.730;8.762;2022-12-05T05:23:22;11.40;;;5.65;;
72639;SDS011;60683;51.730;8.762;2022-12-05T05:25:53;8.30;;;5.00;;
72639;SDS011;60683;51.730;8.762;2022-12-05T05:28:21;11.75;;;6.57;;
72639;SDS011;60683;51.730;8.762;2022-12-05T05:30:48;16.13;;;6.78;;
72639;SDS011;60683;51.730;8.762;2022-12-05T05:33:16;9.23;;;5.88;;
72639;SDS011;60683;51.730;8.762;2022-12-05T05:35:43;10.48;;;6.28;;
72639;SDS011;60683;51.730;8.762;2022-12-05T05:38:12;11.32;;;6.13;;
72639;SDS011;60683;51.730;8.762;2022-12-05T05:40:39;13.00;;;6.28;;
72639;SDS011;60683;51.730;8.762;2022-12-05T05:43:07;12.32;;;5.90;;
72639;SDS011;60683;51.730;8.762;2022-12-05T05:45:35;11.73;;;5.85;;
72639;SDS011;60683;51.730;8.762;2022-12-05T05:48:02;14.02;;;6.18;;
72639;SDS011;60683;51.730;8.762;2022-12-05T05:50:30;11.70;;;5.65;;
72639;SDS011;60683;51.730;8.762;2022-12-05T05:52:57;12.77;;;5.45;;
72639;SDS011;60683;51.730;8.762;2022-12-05T05:55:26;13.00;;;6.10;;
72639;SDS011;60683;51.730;8.762;2022-12-05T05:57:54;8.80;;;4.88;;
72639;SDS011;60683;51.730;8.762;2022-12-05T06:00:22;11.20;;;5.47;;
72639;SDS011;60683;51.730;8.762;2022-12-05T06:02:50;11.70;;;5.50;;
72639;SDS011;60683;51.730;8.762;2022-12-05T06:05:17;14.07;;;6.70;;
72639;SDS011;60683;51.730;8.762;2022-12-05T06:07:46;10.75;;;5.65;;
72639;SDS011;60683;51.730;8.762;2022-12-05T06:10:13;14.88;;;6.95;;
72639;SDS011;60683;51.730;8.762;2022-12-05T06:12:43;11.93;;;5.85;;
72639;SDS011;60683;51.730;8.762;2022-12-05T06:15:11;11.65;;;5.20;;
72639;SDS011;60683;51.730;8.762;2022-12-05T06:17:40;12.65;;;6.57;;
72639;SDS011;60683;51.730;8.762;2022-12-05T06:20:07;10.35;;;5.63;;
72639;SDS011;60683;51.730;8.762;2022-12-05T06:22:38;9.60;;;4.95;;
72639;SDS011;60683;51.730;8.762;2022-12-05T06:25:10;13.25;;;7.30;;
72639;SDS011;60683;51.730;8.762;2022-12-05T06:27:37;12.90;;;7.03;;
72639;SDS011;60683;51.730;8.762;2022-12-05T06:30:06;12.50;;;7.00;;
72639;SDS011;60683;51.730;8.762;2022-12-05T06:32:34;11.88;;;6.72;;
72639;SDS011;60683;51.730;8.762;2022-12-05T06:35:02;12.60;;;6.63;;
72639;SDS011;60683;51.730;8.762;2022-12-05T06:37:36;11.70;;;6.10;;
72639;SDS011;60683;51.730;8.762;2022-12-05T06:40:04;12.75;;;5.78;;
72639;SDS011;60683;51.730;8.762;2022-12-05T06:42:35;13.02;;;6.05;;
72639;SDS011;60683;51.730;8.762;2022-12-05T06:45:03;12.27;;;5.82;;
72639;SDS011;60683;51.730;8.762;2022-12-05T06:47:33;10.40;;;6.30;;
72639;SDS011;60683;51.730;8.762;2022-12-05T06:50:01;11.10;;;5.75;;
72639;SDS011;60683;51.730;8.762;2022-12-05T06:52:28;12.40;;;5.45;;
72639;SDS011;60683;51.730;8.762;2022-12-05T06:54:56;14.65;;;6.95;;
72639;SDS011;60683;51.730;8.762;2022-12-05T06:57:24;10.65;;;6.03;;
72639;SDS011;60683;51.730;8.762;2022-12-05T06:59:55;13.32;;;5.93;;
72639;SDS011;60683;51.730;8.762;2022-12-05T07:02:50;13.43;;;6.63;;
72639;SDS011;60683;51.730;8.762;2022-12-05T07:05:16;12.05;;;6.43;;
72639;SDS011;60683;51.730;8.762;2022-12-05T07:07:44;13.38;;;6.63;;
72639;SDS011;60683;51.730;8.762;2022-12-05T07:10:11;12.52;;;6.78;;
72639;SDS011;60683;51.730;8.762;2022-12-05T07:12:39;11.73;;;6.93;;
72639;SDS011;60683;51.730;8.762;2022-12-05T07:15:08;14.90;;;7.53;;
72639;SDS011;60683;51.730;8.762;2022-12-05T07:17:36;11.40;;;6.65;;
72639;SDS011;60683;51.730;8.762;2022-12-05T07:20:07;13.32;;;6.45;;
72639;SDS011;60683;51.730;8.762;2022-12-05T07:22:37;11.43;;;6.57;;
72639;SDS011;60683;51.730;8.762;2022-12-05T07:25:05;11.05;;;5.50;;
72639;SDS011;60683;51.730;8.762;2022-12-05T07:27:34;12.68;;;6.00;;
72639;SDS011;60683;51.730;8.762;2022-12-05T07:30:01;14.98;;;6.90;;
72639;SDS011;60683;51.730;8.762;2022-12-05T07:32:30;16.27;;;7.35;;
72639;SDS011;60683;51.730;8.762;2022-12-05T07:34:58;14.60;;;6.25;;
72639;SDS011;60683;51.730;8.762;2022-12-05T07:37:27;13.32;;;6.25;;
72639;SDS011;60683;51.730;8.762;2022-12-05T07:39:54;13.65;;;6.63;;
72639;SDS011;60683;51.730;8.762;2022-12-05T07:42:22;15.27;;;7.30;;
72639;SDS011;60683;51.730;8.762;2022-12-05T07:44:50;12.13;;;5.75;;
72639;SDS011;60683;51.730;8.762;2022-12-05T07:47:17;15.80;;;7.50;;
72639;SDS011;60683;51.730;8.762;2022-12-05T07:49:45;16.00;;;7.55;;
72639;SDS011;60683;51.730;8.762;2022-12-05T07:52:12;11.85;;;7.28;;
72639;SDS011;60683;51.730;8.762;2022-12-05T07:54:41;13.40;;;7.60;;
72639;SDS011;60683;51.730;8.762;2022-12-05T07:57:08;11.70;;;6.57;;
72639;SDS011;60683;51.730;8.762;2022-12-05T07:59:36;12.85;;;5.63;;
72639;SDS011;60683;51.730;8.762;2022-12-05T08:02:06;11.93;;;7.03;;
72639;SDS011;60683;51.730;8.762;2022-12-05T08:04:34;14.60;;;6.85;;
72639;SDS011;60683;51.730;8.762;2022-12-05T08:07:01;14.07;;;6.78;;
72639;SDS011;60683;51.730;8.762;2022-12-05T08:09:28;16.15;;;7.18;;
72639;SDS011;60683;51.730;8.762;2022-12-05T08:11:57;17.92;;;7.82;;
72639;SDS011;60683;51.730;8.762;2022-12-05T08:14:25;13.50;;;7.55;;
72639;SDS011;60683;51.730;8.762;2022-12-05T08:16:52;13.65;;;7.25;;
72639;SDS011;60683;51.730;8.762;2022-12-05T08:19:19;14.00;;;7.85;;
72639;SDS011;60683;51.730;8.762;2022-12-05T08:21:47;11.65;;;6.50;;
72639;SDS011;60683;51.730;8.762;2022-12-05T08:24:14;16.17;;;7.18;;
72639;SDS011;60683;51.730;8.762;2022-12-05T08:26:41;17.52;;;7.35;;
72639;SDS011;60683;51.730;8.762;2022-12-05T08:29:11;13.10;;;6.05;;
72639;SDS011;60683;51.730;8.762;2022-12-05T08:34:09;12.55;;;5.75;;
72639;SDS011;60683;51.730;8.762;2022-12-05T08:39:05;10.05;;;5.57;;
72639;SDS011;60683;51.730;8.762;2022-12-05T08:41:34;11.20;;;5.10;;
72639;SDS011;60683;51.730;8.762;2022-12-05T08:44:02;12.68;;;7.20;;
72639;SDS011;60683;51.730;8.762;2022-12-05T08:46:33;13.38;;;7.13;;
72639;SDS011;60683;51.730;8.762;2022-12-05T08:49:02;12.93;;;6.60;;
72639;SDS011;60683;51.730;8.762;2022-12-05T08:51:29;14.00;;;7.00;;
72639;SDS011;60683;51.730;8.762;2022-12-05T08:53:56;13.75;;;6.53;;
72639;SDS011;60683;51.730;8.762;2022-12-05T08:56:24;12.65;;;7.03;;
72639;SDS011;60683;51.730;8.762;2022-12-05T08:58:52;15.13;;;6.72;;
72639;SDS011;60683;51.730;8.762;2022-12-05T09:01:20;13.55;;;7.05;;
72639;SDS011;60683;51.730;8.762;2022-12-05T09:03:49;11.10;;;6.57;;
72639;SDS011;60683;51.730;8.762;2022-12-05T09:06:17;13.95;;;7.22;;
72639;SDS011;60683;51.730;8.762;2022-12-05T09:08:46;15.30;;;7.13;;
72639;SDS011;60683;51.730;8.762;2022-12-05T09:11:14;11.85;;;7.20;;
72639;SDS011;60683;51.730;8.762;2022-12-05T09:13:42;12.10;;;6.60;;
72639;SDS011;60683;51.730;8.762;2022-12-05T09:16:11;12.32;;;6.15;;
72639;SDS011;60683;51.730;8.762;2022-12-05T09:18:39;14.30;;;7.55;;
72639;SDS011;60683;51.730;8.762;2022-12-05T09:21:09;13.13;;;5.97;;
72639;SDS011;60683;51.730;8.762;2022-12-05T09:23:38;13.18;;;7.05;;
72639;SDS011;60683;51.730;8.762;2022-12-05T09:26:07;12.45;;;6.82;;
72639;SDS011;60683;51.730;8.762;2022-12-05T09:28:36;17.40;;;7.45;;
72639;SDS011;60683;51.730;8.762;2022-12-05T09:31:05;13.85;;;6.47;;
72639;SDS011;60683;51.730;8.762;2022-12-05T09:33:33;13.60;;;6.43;;
72639;SDS011;60683;51.730;8.762;2022-12-05T09:36:04;13.73;;;7.65;;
72639;SDS011;60683;51.730;8.762;2022-12-05T09:38:33;13.63;;;6.97;;
72639;SDS011;60683;51.730;8.762;2022-12-05T09:41:04;16.40;;;7.80;;
72639;SDS011;60683;51.730;8.762;2022-12-05T09:43:36;15.02;;;6.70;;
72639;SDS011;60683;51.730;8.762;2022-12-05T09:46:13;17.35;;;7.93;;
72639;SDS011;60683;51.730;8.762;2022-12-05T09:48:43;14.88;;;7.03;;
72639;SDS011;60683;51.730;8.762;2022-12-05T09:51:11;14.57;;;7.75;;
72639;SDS011;60683;51.730;8.762;2022-12-05T09:53:40;15.85;;;7.50;;
72639;SDS011;60683;51.730;8.762;2022-12-05T09:56:21;14.32;;;7.80;;
72639;SDS011;60683;51.730;8.762;2022-12-05T09:58:51;13.77;;;7.15;;
72639;SDS011;60683;51.730;8.762;2022-12-05T10:01:22;15.50;;;8.13;;
72639;SDS011;60683;51.730;8.762;2022-12-05T10:04:00;13.82;;;6.97;;
72639;SDS011;60683;51.730;8.762;2022-12-05T10:06:33;11.82;;;7.78;;
72639;SDS011;60683;51.730;8.762;2022-12-05T10:09:10;13.60;;;7.40;;
72639;SDS011;60683;51.730;8.762;2022-12-05T10:11:46;16.17;;;7.78;;
72639;SDS011;60683;51.730;8.762;2022-12-05T10:14:17;12.20;;;7.20;;
72639;SDS011;60683;51.730;8.762;2022-12-05T10:16:50;12.10;;;7.60;;
72639;SDS011;60683;51.730;8.762;2022-12-05T10:19:21;16.02;;;7.32;;
72639;SDS011;60683;51.730;8.762;2022-12-05T10:21:52;14.63;;;7.40;;
72639;SDS011;60683;51.730;8.762;2022-12-05T10:24:27;12.63;;;7.28;;
72639;SDS011;60683;51.730;8.762;2022-12-05T10:26:57;17.08;;;8.45;;
72639;SDS011;60683;51.730;8.762;2022-12-05T10:29:27;15.93;;;8.95;;
72639;SDS011;60683;51.730;8.762;2022-12-05T10:31:59;14.70;;;8.10;;
72639;SDS011;60683;51.730;8.762;2022-12-05T10:34:31;18.70;;;8.60;;
72639;SDS011;60683;51.730;8.762;2022-12-05T10:37:01;13.85;;;8.25;;
72639;SDS011;60683;51.730;8.762;2022-12-05T10:39:36;13.35;;;7.38;;
72639;SDS011;60683;51.730;8.762;2022-12-05T10:42:04;14.23;;;7.82;;
72639;SDS011;60683;51.730;8.762;2022-12-05T10:44:33;14.50;;;7.72;;
72639;SDS011;60683;51.730;8.762;2022-12-05T10:47:01;15.98;;;7.50;;
72639;SDS011;60683;51.730;8.762;2022-12-05T10:49:28;11.13;;;7.18;;
72639;SDS011;60683;51.730;8.762;2022-12-05T10:51:56;14.07;;;7.15;;
72639;SDS011;60683;51.730;8.762;2022-12-05T10:54:27;12.40;;;6.43;;
72639;SDS011;60683;51.730;8.762;2022-12-05T10:56:57;14.85;;;7.57;;
72639;SDS011;60683;51.730;8.762;2022-12-05T10:59:25;12.40;;;6.38;;
72639;SDS011;60683;51.730;8.762;2022-12-05T11:02:16;13.02;;;7.00;;
72639;SDS011;60683;51.730;8.762;2022-12-05T11:04:47;11.68;;;7.90;;
72639;SDS011;60683;51.730;8.762;2022-12-05T11:07:22;12.65;;;6.63;;
72639;SDS011;60683;51.730;8.762;2022-12-05T11:09:51;14.63;;;7.72;;
72639;SDS011;60683;51.730;8.762;2022-12-05T11:12:20;12.95;;;6.80;;
72639;SDS011;60683;51.730;8.762;2022-12-05T11:14:54;14.38;;;7.07;;
72639;SDS011;60683;51.730;8.762;2022-12-05T11:17:25;12.57;;;6.60;;
72639;SDS011;60683;51.730;8.762;2022-12-05T11:19:55;11.93;;;6.13;;
72639;SDS011;60683;51.730;8.762;2022-12-05T11:22:29;10.73;;;5.97;;
72639;SDS011;60683;51.730;8.762;2022-12-05T11:24:57;12.48;;;6.97;;
72639;SDS011;60683;51.730;8.762;2022-12-05T11:27:28;11.77;;;7.20;;
72639;SDS011;60683;51.730;8.762;2022-12-05T11:29:57;12.75;;;7.45;;
72639;SDS011;60683;51.730;8.762;2022-12-05T11:34:56;11.82;;;6.90;;
72639;SDS011;60683;51.730;8.762;2022-12-05T11:37:30;12.60;;;7.45;;
72639;SDS011;60683;51.730;8.762;2022-12-05T11:40:01;13.27;;;8.15;;
72639;SDS011;60683;51.730;8.762;2022-12-05T11:42:36;14.43;;;9.15;;
72639;SDS011;60683;51.730;8.762;2022-12-05T11:45:11;15.70;;;9.30;;
72639;SDS011;60683;51.730;8.762;2022-12-05T11:47:48;15.38;;;9.45;;
72639;SDS011;60683;51.730;8.762;2022-12-05T11:50:24;16.25;;;8.93;;
72639;SDS011;60683;51.730;8.762;2022-12-05T11:53:02;13.93;;;8.57;;
72639;SDS011;60683;51.730;8.762;2022-12-05T11:55:38;14.57;;;8.90;;
72639;SDS011;60683;51.730;8.762;2022-12-05T11:58:21;17.48;;;9.18;;
72639;SDS011;60683;51.730;8.762;2022-12-05T12:00:56;16.83;;;10.35;;
72639;SDS011;60683;51.730;8.762;2022-12-05T12:03:35;18.05;;;10.82;;
72639;SDS011;60683;51.730;8.762;2022-12-05T12:08:44;13.63;;;7.10;;
72639;SDS011;60683;51.730;8.762;2022-12-05T12:11:22;19.13;;;9.50;;
72639;SDS011;60683;51.730;8.762;2022-12-05T12:13:59;17.35;;;9.65;;
72639;SDS011;60683;51.730;8.762;2022-12-05T12:16:30;13.20;;;7.35;;
72639;SDS011;60683;51.730;8.762;2022-12-05T12:19:07;15.73;;;11.15;;
72639;SDS011;60683;51.730;8.762;2022-12-05T12:21:44;16.90;;;10.07;;
72639;SDS011;60683;51.730;8.762;2022-12-05T12:24:20;19.13;;;9.65;;
72639;SDS011;60683;51.730;8.762;2022-12-05T12:26:53;15.45;;;9.20;;
72639;SDS011;60683;51.730;8.762;2022-12-05T12:29:29;13.82;;;9.25;;
72639;SDS011;60683;51.730;8.762;2022-12-05T12:32:10;17.83;;;10.35;;
72639;SDS011;60683;51.730;8.762;2022-12-05T12:34:47;15.93;;;10.02;;
72639;SDS011;60683;51.730;8.762;2022-12-05T12:37:26;13.93;;;8.85;;
72639;SDS011;60683;51.730;8.762;2022-12-05T12:40:03;9.38;;;7.35;;
72639;SDS011;60683;51.730;8.762;2022-12-05T12:42:42;12.82;;;7.45;;
72639;SDS011;60683;51.730;8.762;2022-12-05T12:45:30;9.68;;;6.50;;
72639;SDS011;60683;51.730;8.762;2022-12-05T12:48:11;14.10;;;8.25;;
72639;SDS011;60683;51.730;8.762;2022-12-05T12:50:44;14.82;;;7.47;;
72639;SDS011;60683;51.730;8.762;2022-12-05T12:56:10;15.18;;;7.55;;
72639;SDS011;60683;51.730;8.762;2022-12-05T12:58:46;16.58;;;8.57;;
72639;SDS011;60683;51.730;8.762;2022-12-05T13:01:19;11.95;;;7.07;;
72639;SDS011;60683;51.730;8.762;2022-12-05T13:03:52;13.48;;;7.57;;
72639;SDS011;60683;51.730;8.762;2022-12-05T13:06:27;10.45;;;6.72;;
72639;SDS011;60683;51.730;8.762;2022-12-05T13:08:58;11.90;;;7.65;;
72639;SDS011;60683;51.730;8.762;2022-12-05T13:11:29;12.13;;;7.03;;
72639;SDS011;60683;51.730;8.762;2022-12-05T13:14:01;9.70;;;6.47;;
72639;SDS011;60683;51.730;8.762;2022-12-05T13:16:32;11.10;;;7.43;;
72639;SDS011;60683;51.730;8.762;2022-12-05T13:19:03;13.80;;;7.35;;
72639;SDS011;60683;51.730;8.762;2022-12-05T13:21:32;13.95;;;6.90;;
72639;SDS011;60683;51.730;8.762;2022-12-05T13:24:00;11.30;;;6.78;;
72639;SDS011;60683;51.730;8.762;2022-12-05T13:26:28;11.60;;;6.57;;
72639;SDS011;60683;51.730;8.762;2022-12-05T13:28:56;13.68;;;7.72;;
72639;SDS011;60683;51.730;8.762;2022-12-05T13:31:36;13.80;;;7.65;;
72639;SDS011;60683;51.730;8.762;2022-12-05T13:34:04;12.80;;;7.35;;
72639;SDS011;60683;51.730;8.762;2022-12-05T13:36:37;11.57;;;7.45;;
72639;SDS011;60683;51.730;8.762;2022-12-05T13:39:23;12.80;;;7.05;;
72639;SDS011;60683;51.730;8.762;2022-12-05T13:42:18;12.95;;;8.50;;
72639;SDS011;60683;51.730;8.762;2022-12-05T13:44:47;9.77;;;6.25;;
72639;SDS011;60683;51.730;8.762;2022-12-05T13:47:22;11.07;;;6.82;;
72639;SDS011;60683;51.730;8.762;2022-12-05T13:49:53;12.63;;;7.80;;
72639;SDS011;60683;51.730;8.762;2022-12-05T13:52:24;13.80;;;7.25;;
72639;SDS011;60683;51.730;8.762;2022-12-05T13:54:55;11.57;;;7.90;;
72639;SDS011;60683;51.730;8.762;2022-12-05T14:02:56;7.95;;;4.25;;
72639;SDS011;60683;51.730;8.762;2022-12-05T14:05:48;9.73;;;5.55;;
72639;SDS011;60683;51.730;8.762;2022-12-05T14:11:18;10.18;;;5.20;;
72639;SDS011;60683;51.730;8.762;2022-12-05T14:13:45;10.10;;;5.95;;
72639;SDS011;60683;51.730;8.762;2022-12-05T14:28:30;13.52;;;7.93;;
72639;SDS011;60683;51.730;8.762;2022-12-05T14:31:07;12.98;;;6.25;;
72639;SDS011;60683;51.730;8.762;2022-12-05T14:33:44;12.77;;;6.65;;
72639;SDS011;60683;51.730;8.762;2022-12-05T14:36:13;11.88;;;6.15;;
72639;SDS011;60683;51.730;8.762;2022-12-05T14:41:11;14.38;;;6.00;;
72639;SDS011;60683;51.730;8.762;2022-12-05T14:43:40;9.80;;;6.63;;
72639;SDS011;60683;51.730;8.762;2022-12-05T14:46:14;14.70;;;8.13;;
72639;SDS011;60683;51.730;8.762;2022-12-05T14:48:43;11.52;;;6.53;;
72639;SDS011;60683;51.730;8.762;2022-12-05T14:54:13;12.07;;;7.97;;
72639;SDS011;60683;51.730;8.762;2022-12-05T14:56:42;10.55;;;6.55;;
72639;SDS011;60683;51.730;8.762;2022-12-05T14:59:16;11.05;;;7.53;;
72639;SDS011;60683;51.730;8.762;2022-12-05T15:01:49;12.25;;;6.88;;
72639;SDS011;60683;51.730;8.762;2022-12-05T15:04:18;13.55;;;8.02;;
72639;SDS011;60683;51.730;8.762;2022-12-05T15:06:51;11.15;;;5.75;;
72639;SDS011;60683;51.730;8.762;2022-12-05T15:11:54;8.88;;;5.65;;
72639;SDS011;60683;51.730;8.762;2022-12-05T15:14:24;8.82;;;5.13;;
72639;SDS011;60683;51.730;8.762;2022-12-05T15:16:53;12.15;;;4.65;;
72639;SDS011;60683;51.730;8.762;2022-12-05T15:19:22;10.30;;;5.75;;
72639;SDS011;60683;51.730;8.762;2022-12-05T15:21:55;12.00;;;5.20;;
72639;SDS011;60683;51.730;8.762;2022-12-05T15:24:25;12.68;;;7.32;;
72639;SDS011;60683;51.730;8.762;2022-12-05T15:26:53;12.10;;;6.70;;
72639;SDS011;60683;51.730;8.762;2022-12-05T15:29:23;10.00;;;6.65;;
72639;SDS011;60683;51.730;8.762;2022-12-05T15:31:54;10.50;;;5.80;;
72639;SDS011;60683;51.730;8.762;2022-12-05T15:34:23;12.32;;;6.82;;
72639;SDS011;60683;51.730;8.762;2022-12-05T15:36:54;12.77;;;6.78;;
72639;SDS011;60683;51.730;8.762;2022-12-05T15:39:26;11.75;;;6.97;;
72639;SDS011;60683;51.730;8.762;2022-12-05T15:41:55;12.27;;;7.05;;
72639;SDS011;60683;51.730;8.762;2022-12-05T15:44:26;11.52;;;6.70;;
72639;SDS011;60683;51.730;8.762;2022-12-05T15:46:55;12.55;;;6.90;;
72639;SDS011;60683;51.730;8.762;2022-12-05T15:49:23;11.38;;;6.18;;
72639;SDS011;60683;51.730;8.762;2022-12-05T15:51:52;10.82;;;6.82;;
72639;SDS011;60683;51.730;8.762;2022-12-05T15:54:23;12.52;;;6.88;;
72639;SDS011;60683;51.730;8.762;2022-12-05T15:56:56;13.88;;;7.55;;